sensor_id;sensor_type;location;lat;lon;timestamp;pressure;altitude;pressure_sealevel;temperature;humidity
7180;BME280;3631;42.152;24.756;2023-09-19T00:00:34;85173.78;;;-144.30;75.49
7180;BME280;3631;42.152;24.756;2023-09-19T00:03:01;85149.94;;;-144.30;75.37
7180;BME280;3631;42.152;24.756;2023-09-19T00:05:35;85149.94;;;-144.30;75.47
7180;BME280;3631;42.152;24.756;2023-09-19T00:08:02;85165.84;;;-144.30;75.86
7180;BME280;3631;42.152;24.756;2023-09-19T00:10:30;85173.78;;;-144.30;76.00
7180;BME280;3631;42.152;24.756;2023-09-19T00:13:00;85151.94;;;-144.30;75.94
7180;BME280;3631;42.152;24.756;2023-09-19T00:15:31;85084.34;;;-144.30;75.57
7180;BME280;3631;42.152;24.756;2023-09-19T00:18:03;85122.09;;;-144.30;75.04
7180;BME280;3631;42.152;24.756;2023-09-19T00:20:35;85140.00;;;-144.30;74.11
7180;BME280;3631;42.152;24.756;2023-09-19T00:23:02;85171.81;;;-144.30;72.35
7180;BME280;3631;42.152;24.756;2023-09-19T00:25:34;85193.66;;;-144.30;71.21
7180;BME280;3631;42.152;24.756;2023-09-19T00:28:03;85140.00;;;-144.30;70.10
7180;BME280;3631;42.152;24.756;2023-09-19T00:30:30;85138.00;;;-144.30;69.82
7180;BME280;3631;42.152;24.756;2023-09-19T00:32:57;85145.97;;;-144.30;69.75
7180;BME280;3631;42.152;24.756;2023-09-19T00:35:23;85161.88;;;-144.30;69.39
7180;BME280;3631;42.152;24.756;2023-09-19T00:37:52;85054.53;;;-144.30;69.21
7180;BME280;3631;42.152;24.756;2023-09-19T00:40:21;85163.84;;;-144.30;69.64
7180;BME280;3631;42.152;24.756;2023-09-19T00:42:49;85132.03;;;-144.30;70.19
7180;BME280;3631;42.152;24.756;2023-09-19T00:45:16;85177.75;;;-144.30;70.40
7180;BME280;3631;42.152;24.756;2023-09-19T00:47:49;85138.00;;;-144.30;70.88
7180;BME280;3631;42.152;24.756;2023-09-19T00:50:17;85171.81;;;-144.30;70.92
7180;BME280;3631;42.152;24.756;2023-09-19T00:52:46;85197.66;;;-144.30;71.35
7180;BME280;3631;42.152;24.756;2023-09-19T00:55:17;85201.63;;;-144.30;71.43
7180;BME280;3631;42.152;24.756;2023-09-19T00:57:45;85157.88;;;-144.30;71.79
7180;BME280;3631;42.152;24.756;2023-09-19T01:00:13;85173.78;;;-144.30;71.64
7180;BME280;3631;42.152;24.756;2023-09-19T01:02:41;85215.53;;;-144.30;71.16
7180;BME280;3631;42.152;24.756;2023-09-19T01:05:10;85221.50;;;-144.30;71.02
7180;BME280;3631;42.152;24.756;2023-09-19T01:07:38;85237.41;;;-144.30;70.95
7180;BME280;3631;42.152;24.756;2023-09-19T01:10:08;85217.53;;;-144.30;70.89
7180;BME280;3631;42.152;24.756;2023-09-19T01:12:45;85223.47;;;-144.30;70.73
7180;BME280;3631;42.152;24.756;2023-09-19T01:15:21;85237.41;;;-144.30;70.96
7180;BME280;3631;42.152;24.756;2023-09-19T01:17:58;85231.44;;;-144.30;71.17
7180;BME280;3631;42.152;24.756;2023-09-19T01:20:36;85253.31;;;-144.30;71.52
7180;BME280;3631;42.152;24.756;2023-09-19T01:23:12;85253.31;;;-144.30;71.86
7180;BME280;3631;42.152;24.756;2023-09-19T01:25:51;85257.28;;;-144.30;72.53
7180;BME280;3631;42.152;24.756;2023-09-19T01:28:31;85265.22;;;-144.30;73.02
7180;BME280;3631;42.152;24.756;2023-09-19T01:31:04;85241.38;;;-144.30;73.44
7180;BME280;3631;42.152;24.756;2023-09-19T01:33:53;85281.13;;;-144.30;74.02
7180;BME280;3631;42.152;24.756;2023-09-19T01:36:22;85261.25;;;-144.30;74.27
7180;BME280;3631;42.152;24.756;2023-09-19T01:38:50;85233.44;;;-144.30;74.28
7180;BME280;3631;42.152;24.756;2023-09-19T01:41:23;85229.44;;;-144.30;74.43
7180;BME280;3631;42.152;24.756;2023-09-19T01:43:52;85255.28;;;-144.30;74.41
7180;BME280;3631;42.152;24.756;2023-09-19T01:46:24;85239.38;;;-144.30;74.52
7180;BME280;3631;42.152;24.756;2023-09-19T01:48:57;85241.38;;;-144.30;74.70
7180;BME280;3631;42.152;24.756;2023-09-19T01:51:33;85209.56;;;-144.30;74.22
7180;BME280;3631;42.152;24.756;2023-09-19T01:54:03;85215.53;;;-144.30;74.07
7180;BME280;3631;42.152;24.756;2023-09-19T01:56:38;85209.56;;;-144.30;74.98
7180;BME280;3631;42.152;24.756;2023-09-19T01:59:10;85257.28;;;-144.30;75.04
7180;BME280;3631;42.152;24.756;2023-09-19T02:01:42;85245.34;;;-144.30;75.10
7180;BME280;3631;42.152;24.756;2023-09-19T02:04:11;85310.94;;;-144.30;75.08
7180;BME280;3631;42.152;24.756;2023-09-19T02:06:39;85289.09;;;-144.30;74.53
7180;BME280;3631;42.152;24.756;2023-09-19T02:09:06;85249.34;;;-144.30;74.81
7180;BME280;3631;42.152;24.756;2023-09-19T02:11:34;85293.06;;;-144.30;74.02
7180;BME280;3631;42.152;24.756;2023-09-19T02:14:02;85265.22;;;-144.30;73.87
7180;BME280;3631;42.152;24.756;2023-09-19T02:16:30;85267.22;;;-144.30;73.87
7180;BME280;3631;42.152;24.756;2023-09-19T02:18:58;85279.16;;;-144.30;73.64
7180;BME280;3631;42.152;24.756;2023-09-19T02:21:26;85143.97;;;-144.30;73.85
7180;BME280;3631;42.152;24.756;2023-09-19T02:23:54;85293.06;;;-144.30;73.21
7180;BME280;3631;42.152;24.756;2023-09-19T02:26:21;85287.09;;;-144.30;73.39
7180;BME280;3631;42.152;24.756;2023-09-19T02:28:50;85295.06;;;-144.30;73.20
7180;BME280;3631;42.152;24.756;2023-09-19T02:31:18;85289.09;;;-144.30;73.94
7180;BME280;3631;42.152;24.756;2023-09-19T02:33:45;85293.06;;;-144.30;74.72
7180;BME280;3631;42.152;24.756;2023-09-19T02:36:13;85310.94;;;-144.30;74.99
7180;BME280;3631;42.152;24.756;2023-09-19T02:38:42;85312.94;;;-144.30;75.41
7180;BME280;3631;42.152;24.756;2023-09-19T02:41:09;85332.81;;;-144.30;75.94
7180;BME280;3631;42.152;24.756;2023-09-19T02:43:37;85340.78;;;-144.30;76.54
7180;BME280;3631;42.152;24.756;2023-09-19T02:46:04;85348.72;;;-144.30;76.37
7180;BME280;3631;42.152;24.756;2023-09-19T02:48:31;85322.88;;;-144.30;76.35
7180;BME280;3631;42.152;24.756;2023-09-19T02:51:00;85346.72;;;-144.30;75.79
7180;BME280;3631;42.152;24.756;2023-09-19T02:53:28;85376.56;;;-144.30;75.81
7180;BME280;3631;42.152;24.756;2023-09-19T02:55:56;85358.66;;;-144.30;75.25
7180;BME280;3631;42.152;24.756;2023-09-19T02:58:24;85348.72;;;-144.30;75.37
7180;BME280;3631;42.152;24.756;2023-09-19T03:00:53;85336.78;;;-144.30;75.47
7180;BME280;3631;42.152;24.756;2023-09-19T03:03:20;85372.56;;;-144.30;75.59
7180;BME280;3631;42.152;24.756;2023-09-19T03:05:48;85350.72;;;-144.30;75.31
7180;BME280;3631;42.152;24.756;2023-09-19T03:08:16;85394.44;;;-144.30;75.30
7180;BME280;3631;42.152;24.756;2023-09-19T03:10:47;85362.63;;;-144.30;75.35
7180;BME280;3631;42.152;24.756;2023-09-19T03:13:14;85366.63;;;-144.30;75.00
7180;BME280;3631;42.152;24.756;2023-09-19T03:15:41;85356.69;;;-144.30;74.86
7180;BME280;3631;42.152;24.756;2023-09-19T03:18:11;85362.63;;;-144.30;74.52
7180;BME280;3631;42.152;24.756;2023-09-19T03:20:38;85374.56;;;-144.30;74.13
7180;BME280;3631;42.152;24.756;2023-09-19T03:23:05;85368.59;;;-144.30;74.27
7180;BME280;3631;42.152;24.756;2023-09-19T03:25:34;85358.66;;;-144.30;74.99
7180;BME280;3631;42.152;24.756;2023-09-19T03:28:03;85376.56;;;-144.30;74.94
7180;BME280;3631;42.152;24.756;2023-09-19T03:30:32;85382.53;;;-144.30;75.04
7180;BME280;3631;42.152;24.756;2023-09-19T03:33:00;85380.53;;;-144.30;75.51
7180;BME280;3631;42.152;24.756;2023-09-19T03:35:27;85394.44;;;-144.30;75.69
7180;BME280;3631;42.152;24.756;2023-09-19T03:37:54;85320.91;;;-144.30;76.11
7180;BME280;3631;42.152;24.756;2023-09-19T03:40:21;85384.50;;;-144.30;76.59
7180;BME280;3631;42.152;24.756;2023-09-19T03:42:49;85396.44;;;-144.30;77.30
7180;BME280;3631;42.152;24.756;2023-09-19T03:45:17;85412.34;;;-144.30;77.31
7180;BME280;3631;42.152;24.756;2023-09-19T03:47:44;85404.38;;;-144.30;77.26
7180;BME280;3631;42.152;24.756;2023-09-19T03:50:12;85410.34;;;-144.30;77.08
7180;BME280;3631;42.152;24.756;2023-09-19T03:52:41;85404.38;;;-144.30;76.91
7180;BME280;3631;42.152;24.756;2023-09-19T03:55:08;85392.47;;;-144.30;76.73
7180;BME280;3631;42.152;24.756;2023-09-19T03:57:35;85380.53;;;-144.30;76.22
7180;BME280;3631;42.152;24.756;2023-09-19T04:00:02;85368.59;;;-144.30;76.39
7180;BME280;3631;42.152;24.756;2023-09-19T04:02:32;85438.19;;;-144.30;76.65
7180;BME280;3631;42.152;24.756;2023-09-19T04:05:00;85406.38;;;-144.30;77.09
7180;BME280;3631;42.152;24.756;2023-09-19T04:07:27;85458.06;;;-144.30;76.95
7180;BME280;3631;42.152;24.756;2023-09-19T04:09:55;85426.25;;;-144.30;76.59
7180;BME280;3631;42.152;24.756;2023-09-19T04:12:22;85424.25;;;-144.30;76.38
7180;BME280;3631;42.152;24.756;2023-09-19T04:14:49;85420.28;;;-144.30;76.03
7180;BME280;3631;42.152;24.756;2023-09-19T04:17:17;85440.16;;;-144.30;76.07
7180;BME280;3631;42.152;24.756;2023-09-19T04:19:45;85376.56;;;-144.30;76.27
7180;BME280;3631;42.152;24.756;2023-09-19T04:22:12;85416.31;;;-144.30;76.73
7180;BME280;3631;42.152;24.756;2023-09-19T04:24:39;85408.34;;;-144.30;76.58
7180;BME280;3631;42.152;24.756;2023-09-19T04:27:06;85388.47;;;-144.30;75.79
7180;BME280;3631;42.152;24.756;2023-09-19T04:29:35;85388.47;;;-144.30;75.55
7180;BME280;3631;42.152;24.756;2023-09-19T04:32:03;85380.53;;;-144.30;74.96
7180;BME280;3631;42.152;24.756;2023-09-19T04:34:31;85344.75;;;-144.30;74.41
7180;BME280;3631;42.152;24.756;2023-09-19T04:37:01;85360.66;;;-144.30;73.87
7180;BME280;3631;42.152;24.756;2023-09-19T04:39:29;85386.50;;;-144.30;74.19
7180;BME280;3631;42.152;24.756;2023-09-19T04:41:56;85380.53;;;-144.30;73.95
7180;BME280;3631;42.152;24.756;2023-09-19T04:44:24;85386.50;;;-144.30;73.11
7180;BME280;3631;42.152;24.756;2023-09-19T04:46:51;85358.66;;;-144.30;72.70
7180;BME280;3631;42.152;24.756;2023-09-19T04:49:17;85487.88;;;-144.30;72.31
7180;BME280;3631;42.152;24.756;2023-09-19T04:51:44;85352.69;;;-144.30;71.51
7180;BME280;3631;42.152;24.756;2023-09-19T04:54:14;85271.19;;;-144.30;71.38
7180;BME280;3631;42.152;24.756;2023-09-19T04:56:41;85316.91;;;-144.30;71.30
7180;BME280;3631;42.152;24.756;2023-09-19T04:59:08;85301.00;;;-144.30;71.19
7180;BME280;3631;42.152;24.756;2023-09-19T05:01:36;85314.94;;;-144.30;70.19
7180;BME280;3631;42.152;24.756;2023-09-19T05:04:02;85261.25;;;-144.30;69.68
7180;BME280;3631;42.152;24.756;2023-09-19T05:06:30;85267.22;;;-144.30;69.36
7180;BME280;3631;42.152;24.756;2023-09-19T05:08:58;85243.38;;;-144.30;68.60
7180;BME280;3631;42.152;24.756;2023-09-19T05:11:27;85209.56;;;-144.30;67.72
7180;BME280;3631;42.152;24.756;2023-09-19T05:13:55;85056.50;;;-144.30;65.01
7180;BME280;3631;42.152;24.756;2023-09-19T05:16:22;84891.53;;;-144.30;60.05
7180;BME280;3631;42.152;24.756;2023-09-19T05:18:49;84597.38;;;-144.30;55.27
7180;BME280;3631;42.152;24.756;2023-09-19T05:21:16;84396.66;;;-144.30;50.82
7180;BME280;3631;42.152;24.756;2023-09-19T05:23:43;84187.97;;;-144.30;47.16
7180;BME280;3631;42.152;24.756;2023-09-19T05:26:10;84021.06;;;-144.30;45.18
7180;BME280;3631;42.152;24.756;2023-09-19T05:28:39;83850.16;;;-144.30;43.20
7180;BME280;3631;42.152;24.756;2023-09-19T05:31:06;83756.78;;;-144.30;40.98
7180;BME280;3631;42.152;24.756;2023-09-19T05:33:33;83605.75;;;-144.30;40.28
7180;BME280;3631;42.152;24.756;2023-09-19T05:36:00;83522.31;;;-144.30;39.46
7180;BME280;3631;42.152;24.756;2023-09-19T05:38:27;83331.59;;;-144.30;38.18
7180;BME280;3631;42.152;24.756;2023-09-19T05:40:56;83218.34;;;-144.30;36.69
7180;BME280;3631;42.152;24.756;2023-09-19T05:43:24;83079.28;;;-144.30;35.78
7180;BME280;3631;42.152;24.756;2023-09-19T05:45:53;82977.97;;;-144.30;34.74
7180;BME280;3631;42.152;24.756;2023-09-19T05:48:22;83013.72;;;-144.30;34.83
7180;BME280;3631;42.152;24.756;2023-09-19T05:50:49;82983.91;;;-144.30;34.68
7180;BME280;3631;42.152;24.756;2023-09-19T05:53:15;82834.94;;;-144.30;33.79
7180;BME280;3631;42.152;24.756;2023-09-19T05:55:44;82729.66;;;-144.30;33.12
7180;BME280;3631;42.152;24.756;2023-09-19T05:58:11;82683.97;;;-144.30;32.46
7180;BME280;3631;42.152;24.756;2023-09-19T06:00:39;82521.09;;;-144.30;31.82
7180;BME280;3631;42.152;24.756;2023-09-19T06:03:10;82507.19;;;-144.30;32.00
7180;BME280;3631;42.152;24.756;2023-09-19T06:05:38;82662.09;;;-144.30;31.88
7180;BME280;3631;42.152;24.756;2023-09-19T06:08:07;82809.09;;;-144.30;32.99
7180;BME280;3631;42.152;24.756;2023-09-19T06:10:35;82956.09;;;-144.30;33.76
7180;BME280;3631;42.152;24.756;2023-09-19T06:13:02;83045.50;;;-144.30;34.37
7180;BME280;3631;42.152;24.756;2023-09-19T06:15:30;82864.72;;;-144.30;33.90
7180;BME280;3631;42.152;24.756;2023-09-19T06:17:59;82727.66;;;-144.30;32.84
7180;BME280;3631;42.152;24.756;2023-09-19T06:20:29;82570.75;;;-144.30;32.04
7180;BME280;3631;42.152;24.756;2023-09-19T06:22:58;82489.31;;;-144.30;31.84
7180;BME280;3631;42.152;24.756;2023-09-19T06:25:27;82298.63;;;-144.30;31.25
7180;BME280;3631;42.152;24.756;2023-09-19T06:27:54;82161.59;;;-144.30;30.84
7180;BME280;3631;42.152;24.756;2023-09-19T06:30:23;82201.31;;;-144.30;30.69
7180;BME280;3631;42.152;24.756;2023-09-19T06:32:55;82419.78;;;-144.30;31.49
7180;BME280;3631;42.152;24.756;2023-09-19T06:35:22;82342.31;;;-144.30;31.83
7180;BME280;3631;42.152;24.756;2023-09-19T06:37:53;82225.13;;;-144.30;31.38
7180;BME280;3631;42.152;24.756;2023-09-19T06:40:20;82098.03;;;-144.30;30.62
7180;BME280;3631;42.152;24.756;2023-09-19T06:42:50;82030.50;;;-144.30;30.38
7180;BME280;3631;42.152;24.756;2023-09-19T06:45:18;81905.38;;;-144.30;30.12
7180;BME280;3631;42.152;24.756;2023-09-19T06:47:47;81823.97;;;-144.30;29.41
7180;BME280;3631;42.152;24.756;2023-09-19T06:50:16;82078.16;;;-144.30;30.47
7180;BME280;3631;42.152;24.756;2023-09-19T06:52:45;82292.66;;;-144.30;31.45
7180;BME280;3631;42.152;24.756;2023-09-19T06:55:13;82405.88;;;-144.30;31.83
7180;BME280;3631;42.152;24.756;2023-09-19T06:57:41;82441.63;;;-144.30;32.39
7180;BME280;3631;42.152;24.756;2023-09-19T07:00:09;82431.69;;;-144.30;32.17
7180;BME280;3631;42.152;24.756;2023-09-19T07:02:41;82578.69;;;-144.30;32.99
7180;BME280;3631;42.152;24.756;2023-09-19T07:05:08;82717.72;;;-144.30;34.02
7180;BME280;3631;42.152;24.756;2023-09-19T07:07:36;82966.03;;;-144.30;35.09
7180;BME280;3631;42.152;24.756;2023-09-19T07:10:03;83099.13;;;-144.30;36.41
7180;BME280;3631;42.152;24.756;2023-09-19T07:12:32;82958.09;;;-144.30;35.72
7180;BME280;3631;42.152;24.756;2023-09-19T07:14:59;82916.38;;;-144.30;35.39
7180;BME280;3631;42.152;24.756;2023-09-19T07:17:26;82880.63;;;-144.30;35.22
7180;BME280;3631;42.152;24.756;2023-09-19T07:19:54;82983.91;;;-144.30;35.95
7180;BME280;3631;42.152;24.756;2023-09-19T07:22:22;82862.75;;;-144.30;35.66
7180;BME280;3631;42.152;24.756;2023-09-19T07:24:49;82757.47;;;-144.30;34.99
7180;BME280;3631;42.152;24.756;2023-09-19T07:27:16;82594.56;;;-144.30;34.04
7180;BME280;3631;42.152;24.756;2023-09-19T07:29:44;82441.63;;;-144.30;33.31
7180;BME280;3631;42.152;24.756;2023-09-19T07:32:11;82157.63;;;-144.30;31.61
7180;BME280;3631;42.152;24.756;2023-09-19T07:34:39;81887.53;;;-144.30;30.49
7180;BME280;3631;42.152;24.756;2023-09-19T07:37:06;81692.91;;;-144.30;29.75
7180;BME280;3631;42.152;24.756;2023-09-19T07:39:33;81291.78;;;-144.30;28.29
7180;BME280;3631;42.152;24.756;2023-09-19T07:42:00;81194.50;;;-144.30;27.86
7180;BME280;3631;42.152;24.756;2023-09-19T07:44:27;81067.44;;;-144.30;26.91
7180;BME280;3631;42.152;24.756;2023-09-19T07:46:55;80777.56;;;-144.30;26.54
7180;BME280;3631;42.152;24.756;2023-09-19T07:49:22;80805.34;;;-144.30;26.29
7180;BME280;3631;42.152;24.756;2023-09-19T07:51:49;80856.97;;;-144.30;26.26
7180;BME280;3631;42.152;24.756;2023-09-19T07:54:17;80970.16;;;-144.30;26.48
7180;BME280;3631;42.152;24.756;2023-09-19T07:56:44;81140.91;;;-144.30;27.05
7180;BME280;3631;42.152;24.756;2023-09-19T07:59:11;81361.28;;;-144.30;27.42
7180;BME280;3631;42.152;24.756;2023-09-19T08:01:39;81756.44;;;-144.30;28.85
7180;BME280;3631;42.152;24.756;2023-09-19T08:04:10;82268.84;;;-144.30;30.89
7180;BME280;3631;42.152;24.756;2023-09-19T08:06:37;82711.78;;;-144.30;33.00
7180;BME280;3631;42.152;24.756;2023-09-19T08:09:04;83005.78;;;-144.30;35.05
7180;BME280;3631;42.152;24.756;2023-09-19T08:11:33;83270.00;;;-144.30;36.80
7180;BME280;3631;42.152;24.756;2023-09-19T08:14:00;83387.22;;;-144.30;37.84
7180;BME280;3631;42.152;24.756;2023-09-19T08:16:27;83575.97;;;-144.30;39.82
7180;BME280;3631;42.152;24.756;2023-09-19T08:18:53;83663.38;;;-144.30;40.87
7180;BME280;3631;42.152;24.756;2023-09-19T08:21:22;83677.28;;;-144.30;41.74
7180;BME280;3631;42.152;24.756;2023-09-19T08:23:49;83687.22;;;-144.30;41.46
7180;BME280;3631;42.152;24.756;2023-09-19T08:26:16;83730.94;;;-144.30;41.74
7180;BME280;3631;42.152;24.756;2023-09-19T08:28:43;83738.88;;;-144.30;41.45
7180;BME280;3631;42.152;24.756;2023-09-19T08:31:10;83796.50;;;-144.30;41.99
7180;BME280;3631;42.152;24.756;2023-09-19T08:33:37;83822.34;;;-144.30;42.51
7180;BME280;3631;42.152;24.756;2023-09-19T08:36:06;83850.16;;;-144.30;42.88
7180;BME280;3631;42.152;24.756;2023-09-19T08:38:36;83885.94;;;-144.30;43.09
7180;BME280;3631;42.152;24.756;2023-09-19T08:41:06;83879.97;;;-144.30;42.68
7180;BME280;3631;42.152;24.756;2023-09-19T08:43:33;83838.25;;;-144.30;42.77
7180;BME280;3631;42.152;24.756;2023-09-19T08:46:09;83879.97;;;-144.30;43.48
7180;BME280;3631;42.152;24.756;2023-09-19T08:48:39;83925.66;;;-144.30;43.72
7180;BME280;3631;42.152;24.756;2023-09-19T08:51:07;83953.50;;;-144.30;44.23
7180;BME280;3631;42.152;24.756;2023-09-19T08:53:41;83935.59;;;-144.30;44.18
7180;BME280;3631;42.152;24.756;2023-09-19T08:56:11;83953.50;;;-144.30;44.35
7180;BME280;3631;42.152;24.756;2023-09-19T08:58:44;84005.16;;;-144.30;44.69
7180;BME280;3631;42.152;24.756;2023-09-19T09:01:14;84011.13;;;-144.30;44.88
7180;BME280;3631;42.152;24.756;2023-09-19T09:03:42;83977.34;;;-144.30;44.70
7180;BME280;3631;42.152;24.756;2023-09-19T09:06:14;83979.31;;;-144.30;44.55
7180;BME280;3631;42.152;24.756;2023-09-19T09:08:43;83911.75;;;-144.30;43.96
7180;BME280;3631;42.152;24.756;2023-09-19T09:11:11;83856.13;;;-144.30;43.34
7180;BME280;3631;42.152;24.756;2023-09-19T09:13:38;83852.16;;;-144.30;42.51
7180;BME280;3631;42.152;24.756;2023-09-19T09:16:07;83877.97;;;-144.30;42.63
7180;BME280;3631;42.152;24.756;2023-09-19T09:18:35;83919.72;;;-144.30;42.96
7180;BME280;3631;42.152;24.756;2023-09-19T09:21:02;83981.31;;;-144.30;43.09
7180;BME280;3631;42.152;24.756;2023-09-19T09:23:31;83881.97;;;-144.30;43.04
7180;BME280;3631;42.152;24.756;2023-09-19T09:26:00;83881.97;;;-144.30;43.17
7180;BME280;3631;42.152;24.756;2023-09-19T09:28:30;83881.97;;;-144.30;43.24
7180;BME280;3631;42.152;24.756;2023-09-19T09:30:59;83866.06;;;-144.30;42.42
7180;BME280;3631;42.152;24.756;2023-09-19T09:33:26;83818.38;;;-144.30;42.15
7180;BME280;3631;42.152;24.756;2023-09-19T09:35:56;83860.09;;;-144.30;42.17
7180;BME280;3631;42.152;24.756;2023-09-19T09:38:26;83838.25;;;-144.30;41.89
7180;BME280;3631;42.152;24.756;2023-09-19T09:40:55;83846.19;;;-144.30;41.89
7180;BME280;3631;42.152;24.756;2023-09-19T09:43:31;83814.41;;;-144.30;41.69
7180;BME280;3631;42.152;24.756;2023-09-19T09:46:21;83846.19;;;-144.30;42.20
7180;BME280;3631;42.152;24.756;2023-09-19T09:49:06;83794.53;;;-144.30;41.71
7180;BME280;3631;42.152;24.756;2023-09-19T09:51:59;83774.66;;;-144.30;42.14
7180;BME280;3631;42.152;24.756;2023-09-19T09:54:28;83796.50;;;-144.30;42.05
7180;BME280;3631;42.152;24.756;2023-09-19T09:57:02;83826.31;;;-144.30;42.05
7180;BME280;3631;42.152;24.756;2023-09-19T09:59:48;83850.16;;;-144.30;42.14
7180;BME280;3631;42.152;24.756;2023-09-19T10:02:17;83860.09;;;-144.30;41.98
7180;BME280;3631;42.152;24.756;2023-09-19T10:04:55;83836.25;;;-144.30;42.01
7180;BME280;3631;42.152;24.756;2023-09-19T10:07:35;83881.97;;;-144.30;42.02
7180;BME280;3631;42.152;24.756;2023-09-19T10:10:04;83870.03;;;-144.30;41.95
7180;BME280;3631;42.152;24.756;2023-09-19T10:12:43;83929.66;;;-144.30;42.13
7180;BME280;3631;42.152;24.756;2023-09-19T10:15:17;83883.94;;;-144.30;42.07
7180;BME280;3631;42.152;24.756;2023-09-19T10:17:46;83872.03;;;-144.30;42.08
7180;BME280;3631;42.152;24.756;2023-09-19T10:20:15;83834.25;;;-144.30;41.83
7180;BME280;3631;42.152;24.756;2023-09-19T10:23:05;83830.28;;;-144.30;41.81
7180;BME280;3631;42.152;24.756;2023-09-19T10:25:37;83772.66;;;-144.30;41.13
7180;BME280;3631;42.152;24.756;2023-09-19T10:28:06;83748.81;;;-144.30;41.08
7180;BME280;3631;42.152;24.756;2023-09-19T10:30:40;83734.91;;;-144.30;40.60
7180;BME280;3631;42.152;24.756;2023-09-19T10:33:10;83766.72;;;-144.30;40.40
7180;BME280;3631;42.152;24.756;2023-09-19T10:35:39;83719.03;;;-144.30;40.50
7180;BME280;3631;42.152;24.756;2023-09-19T10:38:07;83687.22;;;-144.30;40.21
7180;BME280;3631;42.152;24.756;2023-09-19T10:40:37;83866.06;;;-144.30;40.06
7180;BME280;3631;42.152;24.756;2023-09-19T10:43:11;83709.09;;;-144.30;40.12
7180;BME280;3631;42.152;24.756;2023-09-19T10:45:40;83736.91;;;-144.30;40.38
7180;BME280;3631;42.152;24.756;2023-09-19T10:48:08;83709.09;;;-144.30;40.30
7180;BME280;3631;42.152;24.756;2023-09-19T10:50:41;83758.75;;;-144.30;40.38
7180;BME280;3631;42.152;24.756;2023-09-19T10:53:11;83756.78;;;-144.30;40.59
7180;BME280;3631;42.152;24.756;2023-09-19T10:55:39;83752.78;;;-144.30;40.86
7180;BME280;3631;42.152;24.756;2023-09-19T10:58:07;83687.22;;;-144.30;40.55
7180;BME280;3631;42.152;24.756;2023-09-19T11:00:53;83734.91;;;-144.30;40.43
7180;BME280;3631;42.152;24.756;2023-09-19T11:03:21;83738.88;;;-144.30;40.49
7180;BME280;3631;42.152;24.756;2023-09-19T11:06:03;83711.06;;;-144.30;40.31
7180;BME280;3631;42.152;24.756;2023-09-19T11:08:52;83653.44;;;-144.30;40.33
7180;BME280;3631;42.152;24.756;2023-09-19T11:11:41;83655.44;;;-144.30;40.01
7180;BME280;3631;42.152;24.756;2023-09-19T11:14:15;83689.22;;;-144.30;39.77
7180;BME280;3631;42.152;24.756;2023-09-19T11:20:20;83651.47;;;-144.30;39.88
7180;BME280;3631;42.152;24.756;2023-09-19T11:23:22;83687.22;;;-144.30;39.59
7180;BME280;3631;42.152;24.756;2023-09-19T11:25:51;83675.31;;;-144.30;39.58
7180;BME280;3631;42.152;24.756;2023-09-19T11:28:33;83681.28;;;-144.30;40.32
7180;BME280;3631;42.152;24.756;2023-09-19T11:40:37;83796.50;;;-144.30;40.66
7180;BME280;3631;42.152;24.756;2023-09-19T11:43:29;83744.84;;;-144.30;40.75
7180;BME280;3631;42.152;24.756;2023-09-19T11:46:03;83758.75;;;-144.30;40.40
7180;BME280;3631;42.152;24.756;2023-09-19T11:48:31;83758.75;;;-144.30;40.64
7180;BME280;3631;42.152;24.756;2023-09-19T11:51:00;83790.56;;;-144.30;40.79
7180;BME280;3631;42.152;24.756;2023-09-19T11:53:33;83766.72;;;-144.30;40.34
7180;BME280;3631;42.152;24.756;2023-09-19T11:56:05;83687.22;;;-144.30;40.09
7180;BME280;3631;42.152;24.756;2023-09-19T11:58:37;83736.91;;;-144.30;40.33
7180;BME280;3631;42.152;24.756;2023-09-19T12:01:05;83723.00;;;-144.30;40.40
7180;BME280;3631;42.152;24.756;2023-09-19T12:03:41;83683.25;;;-144.30;40.10
7180;BME280;3631;42.152;24.756;2023-09-19T12:06:12;83651.47;;;-144.30;40.10
7180;BME280;3631;42.152;24.756;2023-09-19T12:08:41;83651.47;;;-144.30;39.99
7180;BME280;3631;42.152;24.756;2023-09-19T12:11:14;83651.47;;;-144.30;39.70
7180;BME280;3631;42.152;24.756;2023-09-19T12:13:43;83603.78;;;-144.30;39.46
7180;BME280;3631;42.152;24.756;2023-09-19T12:16:12;83609.75;;;-144.30;39.16
7180;BME280;3631;42.152;24.756;2023-09-19T12:18:41;83572.00;;;-144.30;38.95
7180;BME280;3631;42.152;24.756;2023-09-19T12:21:08;83583.91;;;-144.30;38.81
7180;BME280;3631;42.152;24.756;2023-09-19T12:23:59;83568.00;;;-144.30;38.59
7180;BME280;3631;42.152;24.756;2023-09-19T12:26:28;83548.16;;;-144.30;38.32
7180;BME280;3631;42.152;24.756;2023-09-19T12:28:55;83583.91;;;-144.30;38.88
7180;BME280;3631;42.152;24.756;2023-09-19T12:31:23;83530.25;;;-144.30;39.03
7180;BME280;3631;42.152;24.756;2023-09-19T12:33:55;83568.00;;;-144.30;38.74
7180;BME280;3631;42.152;24.756;2023-09-19T12:36:22;83593.84;;;-144.30;38.86
7180;BME280;3631;42.152;24.756;2023-09-19T12:38:55;83572.00;;;-144.30;38.74
7180;BME280;3631;42.152;24.756;2023-09-19T12:41:24;83581.91;;;-144.30;38.90
7180;BME280;3631;42.152;24.756;2023-09-19T12:43:53;83591.84;;;-144.30;38.64
7180;BME280;3631;42.152;24.756;2023-09-19T12:46:21;83599.81;;;-144.30;38.56
7180;BME280;3631;42.152;24.756;2023-09-19T12:49:15;83605.75;;;-144.30;38.32
7180;BME280;3631;42.152;24.756;2023-09-19T12:51:43;83583.91;;;-144.30;38.41
7180;BME280;3631;42.152;24.756;2023-09-19T12:54:10;83593.84;;;-144.30;38.18
7180;BME280;3631;42.152;24.756;2023-09-19T12:56:41;83655.44;;;-144.30;38.74
7180;BME280;3631;42.152;24.756;2023-09-19T12:59:12;83643.50;;;-144.30;38.68
7180;BME280;3631;42.152;24.756;2023-09-19T13:01:40;83643.50;;;-144.30;38.65
7180;BME280;3631;42.152;24.756;2023-09-19T13:04:11;83635.56;;;-144.30;38.21
7180;BME280;3631;42.152;24.756;2023-09-19T13:06:40;83685.25;;;-144.30;38.25
7180;BME280;3631;42.152;24.756;2023-09-19T13:09:09;83653.44;;;-144.30;37.96
7180;BME280;3631;42.152;24.756;2023-09-19T13:11:37;83657.41;;;-144.30;38.68
7180;BME280;3631;42.152;24.756;2023-09-19T13:14:18;83679.28;;;-144.30;38.73
7180;BME280;3631;42.152;24.756;2023-09-19T13:16:59;83721.00;;;-144.30;38.46